オムスク の空港の天気 - METARとTAF

オムスク・ツェントラリヌィ空港 ( UNOO / OMS ) - ロシア オムスク
飛行場実況気象(Metar)
観測時間01/29 13:30 OMST (01/29 07:30 UTC)
風向・風速南東 3m/s
視程10km以上
天気現象
なし
気温-14℃
湿度72%
気圧1026hPa
METARUNOO 290730Z 14003MPS CAVOK M14/M18 Q1026 R25/810550 NOSIG RMK QFE761
過去の天気等 Google飛行場航空写真 Wunderground天気予報

過去48時間のMETAR

飛行場予報(TAF)
発表時間: 1/29 10:58 OMST (1/29 04:58 UTC)
予報対象時間: 29日12時 OMST ~ 30日12時 OMST
風向・風速南東 3m/s
視程6000m
全天の4割程度の雲 雲底高度 300m
全天の8割程度の雲 雲底高度 1010m
29日12時 OMST ~ 29日21時 OMST に一時的に
視程2100m
天気現象弱い雪 もや 煙
全天の4割程度の雲 雲底高度 150m
全天の8割程度の雲 雲底高度 910m
TAF UNOO 290458Z 2906/3006 13003MPS 6000 SCT010 BKN033
TEMPO 2906/2915 2100 -SN BR FU SCT005 BKN030